Time;durP1;ratioP1;P1;durP2;ratioP2;P2;SDS_P1;SDS_P2;PMS_P1;PMS_P2;Temp;Humidity;BMP_temperature;BMP_pressure;BME280_temperature;BME280_humidity;BME280_pressure;Samples;Min_cycle;Max_cycle;Signal;HPM_P1;HPM_P2
2022/03/13 00:02:00;;;;;;;206.70;109.82;;;;;;;;;;5084060;28;20032;-67
2022/03/13 00:04:25;;;;;;;244.75;129.85;;;;;;;;;;5085880;28;20089;-68
2022/03/13 00:06:51;;;;;;;155.02;80.88;;;;;;;;;;5085107;28;20393;-67
2022/03/13 00:09:20;;;;;;;135.88;75.80;;;;;;;;;;5083660;28;20040;-67
2022/03/13 00:11:46;;;;;;;243.20;134.18;;;;;;;;;;5075280;28;20100;-67
2022/03/13 00:14:13;;;;;;;296.08;145.07;;;;;;;;;;5081849;28;20076;-69
2022/03/13 00:16:38;;;;;;;292.00;150.13;;;;;;;;;;5086867;28;20039;-67
2022/03/13 00:19:06;;;;;;;309.48;170.57;;;;;;;;;;5076273;28;20043;-68
2022/03/13 00:21:35;;;;;;;336.52;174.20;;;;;;;;;;5080601;28;20030;-69
2022/03/13 00:24:01;;;;;;;440.42;233.95;;;;;;;;;;5084895;28;20714;-69
2022/03/13 00:26:26;;;;;;;422.95;214.95;;;;;;;;;;5083102;28;20123;-69
2022/03/13 00:28:51;;;;;;;320.65;163.60;;;;;;;;;;5077516;28;20081;-69
2022/03/13 00:31:17;;;;;;;284.35;149.23;;;;;;;;;;5079836;28;20024;-67
2022/03/13 00:33:42;;;;;;;278.30;152.38;;;;;;;;;;5083910;28;20038;-67
2022/03/13 00:36:08;;;;;;;246.10;123.78;;;;;;;;;;5074121;28;20055;-67
2022/03/13 00:38:33;;;;;;;255.63;129.32;;;;;;;;;;5079221;28;20024;-68
2022/03/13 00:40:59;;;;;;;253.27;127.40;;;;;;;;;;5080617;28;20020;-67
2022/03/13 00:43:25;;;;;;;239.45;125.07;;;;;;;;;;5084707;28;20059;-68
2022/03/13 00:45:50;;;;;;;217.63;110.82;;;;;;;;;;5085223;28;20421;-67
2022/03/13 00:48:16;;;;;;;145.05;76.97;;;;;;;;;;5063045;28;20020;-66
2022/03/13 00:50:42;;;;;;;190.07;103.65;;;;;;;;;;5075653;28;20551;-69
2022/03/13 00:53:07;;;;;;;201.68;105.90;;;;;;;;;;5086002;28;20028;-67
2022/03/13 00:55:33;;;;;;;307.80;159.55;;;;;;;;;;5083777;28;20107;-67
2022/03/13 00:57:59;;;;;;;331.08;150.30;;;;;;;;;;5081884;28;20039;-67
2022/03/13 01:00:24;;;;;;;237.68;126.13;;;;;;;;;;5073852;28;20020;-68
2022/03/13 01:02:50;;;;;;;222.50;115.75;;;;;;;;;;5080585;28;20535;-68
2022/03/13 01:05:25;;;;;;;238.52;125.85;;;;;;;;;;5072189;28;20020;-68
2022/03/13 01:07:51;;;;;;;231.82;125.80;;;;;;;;;;5083775;28;20047;-67
2022/03/13 01:10:16;;;;;;;182.05;93.93;;;;;;;;;;5068408;28;20032;-67
2022/03/13 01:12:42;;;;;;;156.73;83.97;;;;;;;;;;5083307;28;20048;-67
2022/03/13 01:15:08;;;;;;;152.25;84.03;;;;;;;;;;5083468;28;20451;-67
2022/03/13 01:17:34;;;;;;;146.93;78.30;;;;;;;;;;5084253;28;20024;-67
2022/03/13 01:19:59;;;;;;;169.02;100.07;;;;;;;;;;5084665;28;20032;-67
2022/03/13 01:22:24;;;;;;;134.85;70.63;;;;;;;;;;5084138;28;20028;-67
2022/03/13 01:24:51;;;;;;;88.55;51.20;;;;;;;;;;5085118;28;20442;-66
2022/03/13 01:27:17;;;;;;;73.75;41.30;;;;;;;;;;5084162;28;20051;-67
2022/03/13 01:29:43;;;;;;;127.70;61.33;;;;;;;;;;5080576;28;20035;-68
2022/03/13 01:32:09;;;;;;;129.50;67.53;;;;;;;;;;5076804;28;20036;-67
2022/03/13 01:34:35;;;;;;;151.50;75.20;;;;;;;;;;5066404;28;20702;-67
2022/03/13 01:37:04;;;;;;;192.80;101.35;;;;;;;;;;5085329;28;20024;-67
2022/03/13 01:39:30;;;;;;;;;;;;;;;;;;5083237;28;20040;-67
2022/03/13 01:41:55;;;;;;;145.17;75.27;;;;;;;;;;5082414;28;19915;-67
2022/03/13 01:44:21;;;;;;;130.00;66.43;;;;;;;;;;5085592;28;20334;-67
2022/03/13 01:46:47;;;;;;;140.18;73.07;;;;;;;;;;5083127;28;20058;-66
2022/03/13 01:49:12;;;;;;;142.15;72.05;;;;;;;;;;5082044;28;20081;-66
2022/03/13 01:51:38;;;;;;;113.72;58.05;;;;;;;;;;5082569;28;20032;-67
2022/03/13 01:54:11;;;;;;;154.88;78.50;;;;;;;;;;5083419;28;20032;-68
2022/03/13 01:56:37;;;;;;;152.43;79.93;;;;;;;;;;5084569;28;20081;-67
2022/03/13 01:59:03;;;;;;;165.57;87.60;;;;;;;;;;5081792;28;20439;-67
2022/03/13 02:01:29;;;;;;;174.27;87.22;;;;;;;;;;5080907;28;20020;-69
2022/03/13 02:03:55;;;;;;;207.85;94.50;;;;;;;;;;5071918;28;20024;-67
2022/03/13 02:06:20;;;;;;;243.95;113.60;;;;;;;;;;5080301;28;20024;-68
2022/03/13 02:08:47;;;;;;;221.68;103.65;;;;;;;;;;5082546;28;20035;-68
2022/03/13 02:11:17;;;;;;;201.23;98.80;;;;;;;;;;5082468;28;20027;-69
2022/03/13 02:13:42;;;;;;;;;;;;;;;;;;5085486;28;20043;-69
2022/03/13 02:16:07;;;;;;;164.23;80.05;;;;;;;;;;5073633;28;19922;-68
2022/03/13 02:18:33;;;;;;;180.45;80.72;;;;;;;;;;5074724;28;20261;-68
2022/03/13 02:20:58;;;;;;;181.85;86.05;;;;;;;;;;5080519;28;20074;-69
2022/03/13 02:23:25;;;;;;;176.00;91.32;;;;;;;;;;5064504;28;20035;-69
2022/03/13 02:25:52;;;;;;;238.35;121.30;;;;;;;;;;5060517;28;20464;-68
2022/03/13 02:28:19;;;;;;;219.43;106.70;;;;;;;;;;5081485;28;20036;-68
2022/03/13 02:30:45;;;;;;;211.13;112.47;;;;;;;;;;5083234;28;20027;-69
2022/03/13 02:33:10;;;;;;;210.68;104.18;;;;;;;;;;5076009;28;20030;-70
2022/03/13 02:35:36;;;;;;;231.50;116.70;;;;;;;;;;5071026;28;20127;-68
2022/03/13 02:38:02;;;;;;;220.52;116.05;;;;;;;;;;5078443;28;20036;-69
2022/03/13 02:40:27;;;;;;;169.15;89.32;;;;;;;;;;5082876;28;20067;-68
2022/03/13 02:42:53;;;;;;;314.60;155.15;;;;;;;;;;5081520;28;20069;-67
2022/03/13 02:45:29;;;;;;;421.40;208.93;;;;;;;;;;5084215;28;20367;-68
2022/03/13 02:47:54;;;;;;;274.88;135.32;;;;;;;;;;5082454;28;20115;-68
2022/03/13 02:50:20;;;;;;;249.18;132.90;;;;;;;;;;5081351;28;20103;-68
2022/03/13 02:52:46;;;;;;;190.20;100.43;;;;;;;;;;5081331;28;20465;-67
2022/03/13 02:55:11;;;;;;;152.18;75.90;;;;;;;;;;5084066;28;20040;-69
2022/03/13 02:57:36;;;;;;;135.45;71.95;;;;;;;;;;5084393;28;20020;-68
2022/03/13 03:00:02;;;;;;;149.45;84.60;;;;;;;;;;5073006;28;20347;-68
2022/03/13 03:02:28;;;;;;;165.95;90.28;;;;;;;;;;5081086;28;20510;-68
2022/03/13 03:04:55;;;;;;;148.43;82.85;;;;;;;;;;5082651;28;20095;-68
2022/03/13 03:07:20;;;;;;;135.38;71.47;;;;;;;;;;5083404;28;20028;-68
2022/03/13 03:09:45;;;;;;;161.98;81.50;;;;;;;;;;5083490;28;20059;-69
2022/03/13 03:12:11;;;;;;;133.57;69.38;;;;;;;;;;5081019;28;20028;-67
2022/03/13 03:14:36;;;;;;;128.20;65.07;;;;;;;;;;5085387;28;23006;-67
2022/03/13 03:17:02;;;;;;;103.10;51.70;;;;;;;;;;5084652;28;20165;-68
2022/03/13 03:19:27;;;;;;;103.32;51.40;;;;;;;;;;5085928;28;20495;-67
2022/03/13 03:21:53;;;;;;;99.45;50.17;;;;;;;;;;5085156;28;20098;-67
2022/03/13 03:24:20;;;;;;;83.68;45.10;;;;;;;;;;5084968;28;20035;-68
2022/03/13 03:26:46;;;;;;;122.63;63.60;;;;;;;;;;5085001;28;20110;-69
2022/03/13 03:29:12;;;;;;;104.40;50.53;;;;;;;;;;5072307;28;20435;-69
2022/03/13 03:31:41;;;;;;;111.22;56.65;;;;;;;;;;5071927;28;20032;-68
2022/03/13 03:34:08;;;;;;;118.07;59.22;;;;;;;;;;5073884;28;20490;-68
2022/03/13 03:36:33;;;;;;;163.20;83.07;;;;;;;;;;5072028;28;20038;-69
2022/03/13 03:38:59;;;;;;;166.65;85.63;;;;;;;;;;5053883;28;20135;-69
2022/03/13 03:41:24;;;;;;;159.35;83.88;;;;;;;;;;5080325;28;20036;-68
2022/03/13 03:43:49;;;;;;;154.13;84.43;;;;;;;;;;5079244;28;20024;-69
2022/03/13 03:46:16;;;;;;;186.35;89.38;;;;;;;;;;5084455;28;20881;-68
2022/03/13 03:48:41;;;;;;;208.93;99.93;;;;;;;;;;5085301;28;20020;-69
2022/03/13 03:51:07;;;;;;;241.32;113.00;;;;;;;;;;5085626;28;20168;-69
2022/03/13 03:53:32;;;;;;;225.98;128.07;;;;;;;;;;5085564;28;20016;-68
2022/03/13 03:55:58;;;;;;;223.05;128.77;;;;;;;;;;5085873;28;20424;-68
2022/03/13 03:58:23;;;;;;;185.82;102.15;;;;;;;;;;5084870;28;20024;-69
2022/03/13 04:00:49;;;;;;;149.75;76.90;;;;;;;;;;5085795;28;20031;-69
2022/03/13 04:03:14;;;;;;;152.05;78.93;;;;;;;;;;5074213;28;20024;-70
2022/03/13 04:05:39;;;;;;;147.80;73.47;;;;;;;;;;5072086;28;20437;-69
2022/03/13 04:08:05;;;;;;;153.73;83.88;;;;;;;;;;5079021;28;20399;-69
2022/03/13 04:10:30;;;;;;;230.07;113.75;;;;;;;;;;5079936;28;20016;-69
2022/03/13 04:12:56;;;;;;;171.43;93.38;;;;;;;;;;5072370;28;20044;-69
2022/03/13 04:15:22;;;;;;;161.50;87.18;;;;;;;;;;5081184;28;20157;-68
2022/03/13 04:17:47;;;;;;;135.38;73.97;;;;;;;;;;5084281;28;20323;-69
2022/03/13 04:20:12;;;;;;;131.90;69.65;;;;;;;;;;5072869;28;20031;-69
2022/03/13 04:22:38;;;;;;;130.10;74.03;;;;;;;;;;5079972;28;20028;-70
2022/03/13 04:25:03;;;;;;;131.98;74.90;;;;;;;;;;5072978;28;20036;-69
2022/03/13 04:27:30;;;;;;;105.45;57.63;;;;;;;;;;5075833;28;20031;-69
2022/03/13 04:29:56;;;;;;;117.30;63.40;;;;;;;;;;5078996;28;20035;-69
2022/03/13 04:32:23;;;;;;;174.52;93.05;;;;;;;;;;5072750;28;20032;-67
2022/03/13 04:34:48;;;;;;;132.63;70.68;;;;;;;;;;5071861;28;20019;-68
2022/03/13 04:37:16;;;;;;;129.65;74.28;;;;;;;;;;5073510;28;20041;-67
2022/03/13 04:39:41;;;;;;;127.57;69.90;;;;;;;;;;5080523;28;20548;-68
2022/03/13 04:42:07;;;;;;;127.25;67.10;;;;;;;;;;5083755;28;20052;-67
2022/03/13 04:44:33;;;;;;;128.75;63.78;;;;;;;;;;5085222;28;20118;-68
2022/03/13 04:46:59;;;;;;;108.43;65.97;;;;;;;;;;5077086;28;20031;-68
2022/03/13 04:49:24;;;;;;;94.97;53.58;;;;;;;;;;5074633;28;20148;-70
2022/03/13 04:51:50;;;;;;;98.78;55.13;;;;;;;;;;5072681;28;20431;-69
2022/03/13 04:54:16;;;;;;;163.80;85.28;;;;;;;;;;5075584;28;20114;-69
2022/03/13 04:56:42;;;;;;;132.32;70.25;;;;;;;;;;5083596;28;20119;-68
2022/03/13 04:59:07;;;;;;;119.38;61.25;;;;;;;;;;5081831;28;20118;-72
2022/03/13 05:01:32;;;;;;;105.00;57.05;;;;;;;;;;5082693;28;20032;-69
2022/03/13 05:03:58;;;;;;;102.05;58.58;;;;;;;;;;5082793;28;20049;-70
2022/03/13 05:06:23;;;;;;;83.53;45.55;;;;;;;;;;5083972;28;20116;-71
2022/03/13 05:08:49;;;;;;;96.68;52.55;;;;;;;;;;5071440;28;20028;-72
2022/03/13 05:11:15;;;;;;;106.55;59.00;;;;;;;;;;5073680;28;20415;-70
2022/03/13 05:13:41;;;;;;;110.03;66.07;;;;;;;;;;5069397;28;20087;-68
2022/03/13 05:16:06;;;;;;;121.25;67.47;;;;;;;;;;5070692;28;20040;-73
2022/03/13 05:18:32;;;;;;;119.82;69.82;;;;;;;;;;5069798;28;20093;-70
2022/03/13 05:20:57;;;;;;;122.78;70.50;;;;;;;;;;5070162;28;20127;-69
2022/03/13 05:23:23;;;;;;;126.72;69.30;;;;;;;;;;5071281;28;20015;-70
2022/03/13 05:25:49;;;;;;;107.15;53.88;;;;;;;;;;5078814;28;20038;-69
2022/03/13 05:28:14;;;;;;;95.93;51.20;;;;;;;;;;5083777;28;20040;-69
2022/03/13 05:30:40;;;;;;;223.73;124.45;;;;;;;;;;5074546;28;20056;-67
2022/03/13 05:33:06;;;;;;;203.02;107.18;;;;;;;;;;5080172;28;20569;-68
2022/03/13 05:35:31;;;;;;;171.90;89.32;;;;;;;;;;5082181;28;20370;-69
2022/03/13 05:37:57;;;;;;;117.38;58.97;;;;;;;;;;5067930;28;20354;-68
2022/03/13 05:40:22;;;;;;;118.30;61.67;;;;;;;;;;5076285;28;20028;-69
2022/03/13 05:42:50;;;;;;;139.88;68.28;;;;;;;;;;5071581;28;20450;-69
2022/03/13 05:45:16;;;;;;;188.00;103.70;;;;;;;;;;5073583;28;20407;-69
2022/03/13 05:47:46;;;;;;;246.93;127.32;;;;;;;;;;5071494;28;20070;-69
2022/03/13 05:50:12;;;;;;;234.32;118.95;;;;;;;;;;5082426;28;20080;-69
2022/03/13 05:52:37;;;;;;;403.77;178.27;;;;;;;;;;5065854;28;21411;-68
2022/03/13 05:55:03;;;;;;;264.33;138.27;;;;;;;;;;5082625;28;20034;-68
2022/03/13 05:57:28;;;;;;;249.95;140.93;;;;;;;;;;5081204;28;20027;-68
2022/03/13 05:59:53;;;;;;;663.20;339.63;;;;;;;;;;5079593;28;20032;-68
2022/03/13 06:02:20;;;;;;;519.63;254.00;;;;;;;;;;5080580;28;20406;-68
2022/03/13 06:04:45;;;;;;;354.35;192.07;;;;;;;;;;5082483;28;20063;-69
2022/03/13 06:07:11;;;;;;;221.95;129.07;;;;;;;;;;5081421;28;20075;-69
2022/03/13 06:09:36;;;;;;;166.93;95.22;;;;;;;;;;5081230;28;20024;-69
2022/03/13 06:12:02;;;;;;;196.43;109.82;;;;;;;;;;5082613;28;20019;-68
2022/03/13 06:14:27;;;;;;;283.63;158.63;;;;;;;;;;5081187;28;20067;-68
2022/03/13 06:16:53;;;;;;;235.02;134.88;;;;;;;;;;5082904;28;20153;-68
2022/03/13 06:19:18;;;;;;;378.33;200.52;;;;;;;;;;5082235;28;20043;-69
2022/03/13 06:21:46;;;;;;;284.45;154.90;;;;;;;;;;5080900;28;20020;-68
2022/03/13 06:24:11;;;;;;;588.65;311.08;;;;;;;;;;5084950;28;20020;-68
2022/03/13 06:26:37;;;;;;;460.48;252.00;;;;;;;;;;5082005;28;20032;-67
2022/03/13 06:29:02;;;;;;;325.33;166.32;;;;;;;;;;5083559;28;20084;-68
2022/03/13 06:31:28;;;;;;;447.02;221.35;;;;;;;;;;5081387;28;20077;-68
2022/03/13 06:33:53;;;;;;;172.80;79.43;;;;;;;;;;5081234;28;20032;-68
2022/03/13 06:36:18;;;;;;;145.93;63.80;;;;;;;;;;5082755;28;20058;-68
2022/03/13 06:38:44;;;;;;;379.27;165.90;;;;;;;;;;5084295;28;20868;-69
2022/03/13 06:41:09;;;;;;;474.50;245.93;;;;;;;;;;5083374;28;20023;-68
2022/03/13 06:43:34;;;;;;;502.50;224.35;;;;;;;;;;5082788;28;20446;-69
2022/03/13 06:46:01;;;;;;;283.38;109.68;;;;;;;;;;5082096;28;20055;-69
2022/03/13 06:48:26;;;;;;;441.40;215.93;;;;;;;;;;5082046;28;20028;-68
2022/03/13 06:50:51;;;;;;;226.13;112.95;;;;;;;;;;5082554;28;20016;-69
2022/03/13 06:53:17;;;;;;;460.42;308.45;;;;;;;;;;5080984;28;20081;-69
2022/03/13 06:55:42;;;;;;;223.38;132.45;;;;;;;;;;5082060;28;20032;-68
2022/03/13 06:58:08;;;;;;;91.40;56.60;;;;;;;;;;5082580;28;20096;-68
2022/03/13 07:00:33;;;;;;;64.50;42.55;;;;;;;;;;5084406;28;20326;-69
2022/03/13 07:02:59;;;;;;;80.82;53.83;;;;;;;;;;5082754;28;20020;-67
2022/03/13 07:05:25;;;;;;;67.82;49.55;;;;;;;;;;5080891;28;20115;-68
2022/03/13 07:07:52;;;;;;;40.67;28.80;;;;;;;;;;5082811;28;20195;-67
2022/03/13 07:10:18;;;;;;;54.95;40.38;;;;;;;;;;5082101;28;20028;-68
2022/03/13 07:12:44;;;;;;;68.40;47.88;;;;;;;;;;5082709;28;20100;-67
2022/03/13 07:15:12;;;;;;;62.67;45.78;;;;;;;;;;5082862;28;20028;-68
2022/03/13 07:17:38;;;;;;;51.47;35.17;;;;;;;;;;5082405;28;20024;-68
2022/03/13 07:20:05;;;;;;;35.15;24.85;;;;;;;;;;5082344;28;20036;-68
2022/03/13 07:22:31;;;;;;;27.50;19.05;;;;;;;;;;5085552;28;20172;-68
2022/03/13 07:24:56;;;;;;;30.73;20.88;;;;;;;;;;5081999;28;20143;-68
2022/03/13 07:27:21;;;;;;;25.98;17.42;;;;;;;;;;5082739;28;20236;-69
2022/03/13 07:29:49;;;;;;;21.35;14.80;;;;;;;;;;5083676;28;20031;-67
2022/03/13 07:32:15;;;;;;;26.27;17.02;;;;;;;;;;5082201;28;20028;-69
2022/03/13 07:34:40;;;;;;;29.42;17.40;;;;;;;;;;5082456;28;20094;-69
2022/03/13 07:37:06;;;;;;;52.17;38.20;;;;;;;;;;5081031;28;20540;-68
2022/03/13 07:39:32;;;;;;;43.60;30.33;;;;;;;;;;5082720;28;20367;-68
2022/03/13 07:41:57;;;;;;;28.48;20.27;;;;;;;;;;5081945;28;20032;-69
2022/03/13 07:44:22;;;;;;;20.90;14.75;;;;;;;;;;5081320;28;20412;-69
2022/03/13 07:46:48;;;;;;;22.10;14.68;;;;;;;;;;5082369;28;20032;-68
2022/03/13 07:49:13;;;;;;;19.67;15.02;;;;;;;;;;5084948;28;20493;-69
2022/03/13 07:51:38;;;;;;;75.82;47.85;;;;;;;;;;5082754;28;20140;-69
2022/03/13 07:54:04;;;;;;;104.47;53.22;;;;;;;;;;5081144;28;20065;-69
2022/03/13 07:56:29;;;;;;;54.95;29.55;;;;;;;;;;5080572;28;20016;-69
2022/03/13 07:58:55;;;;;;;40.22;30.55;;;;;;;;;;5083267;28;20039;-69
2022/03/13 08:01:20;;;;;;;42.00;31.20;;;;;;;;;;5085961;28;20343;-69
2022/03/13 08:03:47;;;;;;;115.22;60.38;;;;;;;;;;5085156;28;20032;-69
2022/03/13 08:06:13;;;;;;;31.77;20.65;;;;;;;;;;5086909;28;20141;-69
2022/03/13 08:08:38;;;;;;;25.52;20.67;;;;;;;;;;5084913;28;20567;-69
2022/03/13 08:11:03;;;;;;;25.40;18.13;;;;;;;;;;5086471;28;20024;-70
2022/03/13 08:13:29;;;;;;;28.65;17.30;;;;;;;;;;5084545;28;20463;-69
2022/03/13 08:15:55;;;;;;;20.85;14.63;;;;;;;;;;5086795;28;20020;-69
2022/03/13 08:18:20;;;;;;;24.58;14.10;;;;;;;;;;5083030;28;20034;-70
2022/03/13 08:20:46;;;;;;;20.45;12.82;;;;;;;;;;5085856;28;20035;-69
2022/03/13 08:23:11;;;;;;;24.08;17.50;;;;;;;;;;5076621;28;20139;-68
2022/03/13 08:25:37;;;;;;;20.02;12.20;;;;;;;;;;5083039;28;20126;-70
2022/03/13 08:28:02;;;;;;;20.73;12.98;;;;;;;;;;5082490;28;20411;-68
2022/03/13 08:30:28;;;;;;;17.50;12.30;;;;;;;;;;5090497;28;20027;-69
2022/03/13 08:32:54;;;;;;;22.15;14.52;;;;;;;;;;5086047;28;20446;-69
2022/03/13 08:35:20;;;;;;;22.10;12.77;;;;;;;;;;5084974;28;20032;-69
2022/03/13 08:37:45;;;;;;;24.23;15.05;;;;;;;;;;5087587;28;20034;-69
2022/03/13 08:40:11;;;;;;;26.92;14.10;;;;;;;;;;5085536;28;20042;-69
2022/03/13 08:42:37;;;;;;;16.02;10.05;;;;;;;;;;5085082;28;20032;-69
2022/03/13 08:45:02;;;;;;;18.42;14.13;;;;;;;;;;5084156;28;20012;-70
2022/03/13 08:47:28;;;;;;;24.33;14.32;;;;;;;;;;5085871;28;20076;-70
2022/03/13 08:49:53;;;;;;;18.15;11.95;;;;;;;;;;5084328;28;20016;-70
2022/03/13 08:52:19;;;;;;;38.30;17.58;;;;;;;;;;5084037;28;20938;-70
2022/03/13 08:54:45;;;;;;;43.08;22.75;;;;;;;;;;5082781;28;20055;-70
2022/03/13 08:57:10;;;;;;;37.70;19.35;;;;;;;;;;5085634;28;20128;-70
2022/03/13 08:59:36;;;;;;;35.80;20.33;;;;;;;;;;5085296;28;20027;-70
2022/03/13 09:02:02;;;;;;;68.25;32.63;;;;;;;;;;5086302;28;20020;-70
2022/03/13 09:04:27;;;;;;;68.03;32.47;;;;;;;;;;5083804;28;20050;-70
2022/03/13 09:06:54;;;;;;;21.02;13.10;;;;;;;;;;5084645;28;20610;-71
2022/03/13 09:09:20;;;;;;;25.88;19.67;;;;;;;;;;5083321;28;20990;-70
2022/03/13 09:11:47;;;;;;;22.40;14.85;;;;;;;;;;5083118;28;20020;-70
2022/03/13 09:14:12;;;;;;;22.17;17.90;;;;;;;;;;5084919;28;20453;-70
2022/03/13 09:16:40;;;;;;;19.30;13.93;;;;;;;;;;5074082;28;20173;-70
2022/03/13 09:19:05;;;;;;;18.58;13.27;;;;;;;;;;5083568;28;20036;-70
2022/03/13 09:21:33;;;;;;;19.27;12.52;;;;;;;;;;5084768;28;20038;-70
2022/03/13 09:23:59;;;;;;;81.65;44.17;;;;;;;;;;5082719;28;20103;-71
2022/03/13 09:26:26;;;;;;;60.58;33.38;;;;;;;;;;5084081;28;20426;-71
2022/03/13 09:28:51;;;;;;;17.27;12.68;;;;;;;;;;5084878;28;20392;-70
2022/03/13 09:31:16;;;;;;;18.48;12.02;;;;;;;;;;5086465;28;20032;-69
2022/03/13 09:33:42;;;;;;;26.27;15.93;;;;;;;;;;5083453;28;20028;-68
2022/03/13 09:36:07;;;;;;;15.98;11.23;;;;;;;;;;5083021;28;20103;-71
2022/03/13 09:38:32;;;;;;;17.60;11.07;;;;;;;;;;5083691;28;20051;-71
2022/03/13 09:40:58;;;;;;;22.80;12.80;;;;;;;;;;5081895;28;20031;-71
2022/03/13 09:43:23;;;;;;;33.35;20.35;;;;;;;;;;5082245;28;20066;-70
2022/03/13 09:45:49;;;;;;;28.23;17.20;;;;;;;;;;5082078;28;20023;-71
2022/03/13 09:48:17;;;;;;;58.15;33.00;;;;;;;;;;5084667;28;20020;-69
2022/03/13 09:50:42;;;;;;;40.92;23.38;;;;;;;;;;5082853;28;20015;-69
2022/03/13 09:53:08;;;;;;;25.70;17.98;;;;;;;;;;5082768;28;20472;-71
2022/03/13 09:55:34;;;;;;;65.93;42.97;;;;;;;;;;5082306;28;20016;-71
2022/03/13 09:57:59;;;;;;;34.05;22.38;;;;;;;;;;5081813;28;20358;-71
2022/03/13 10:00:25;;;;;;;30.40;19.33;;;;;;;;;;5082550;28;20039;-71
2022/03/13 10:02:54;;;;;;;44.35;28.73;;;;;;;;;;5086820;28;20032;-71
2022/03/13 10:05:20;;;;;;;20.27;15.57;;;;;;;;;;5081903;28;20085;-71
2022/03/13 10:07:48;;;;;;;30.23;22.58;;;;;;;;;;5084792;28;20035;-72
2022/03/13 10:10:14;;;;;;;17.85;12.63;;;;;;;;;;5083663;28;20028;-70
2022/03/13 10:12:40;;;;;;;17.75;12.93;;;;;;;;;;5083798;28;20116;-71
2022/03/13 10:15:06;;;;;;;18.17;14.00;;;;;;;;;;5083502;28;20089;-70
2022/03/13 10:17:33;;;;;;;19.65;12.73;;;;;;;;;;5082533;28;20089;-72
2022/03/13 10:20:15;;;;;;;15.45;10.55;;;;;;;;;;5082961;28;20035;-72
2022/03/13 10:22:42;;;;;;;25.20;19.95;;;;;;;;;;5086347;28;20043;-70
2022/03/13 10:25:07;;;;;;;16.88;12.15;;;;;;;;;;5083129;28;20803;-71
2022/03/13 10:27:36;;;;;;;19.08;12.45;;;;;;;;;;5082669;28;20032;-71
2022/03/13 10:30:02;;;;;;;17.58;14.75;;;;;;;;;;5084702;28;20032;-71
2022/03/13 10:32:27;;;;;;;22.25;17.85;;;;;;;;;;5081263;28;20028;-72
2022/03/13 10:34:54;;;;;;;19.67;14.75;;;;;;;;;;5083020;28;20038;-70
2022/03/13 10:37:42;;;;;;;18.50;13.50;;;;;;;;;;5082132;28;20043;-71
2022/03/13 10:40:28;;;;;;;14.57;9.73;;;;;;;;;;5083017;28;20040;-71
2022/03/13 10:42:54;;;;;;;16.60;11.88;;;;;;;;;;5068862;28;20421;-72
2022/03/13 10:45:36;;;;;;;13.20;10.25;;;;;;;;;;5081630;28;20066;-72
2022/03/13 10:48:15;;;;;;;16.95;9.88;;;;;;;;;;5082613;28;20054;-70
2022/03/13 10:50:44;;;;;;;16.60;11.18;;;;;;;;;;5084029;28;20032;-70
2022/03/13 10:53:10;;;;;;;14.07;10.73;;;;;;;;;;5082230;28;20034;-70
2022/03/13 10:55:36;;;;;;;23.77;13.40;;;;;;;;;;5081821;28;20103;-70
2022/03/13 10:58:01;;;;;;;15.20;12.13;;;;;;;;;;5082177;28;20046;-69
2022/03/13 11:00:27;;;;;;;14.52;9.13;;;;;;;;;;5083204;28;20078;-69
2022/03/13 11:02:53;;;;;;;11.30;8.00;;;;;;;;;;5081719;28;20024;-69
2022/03/13 11:05:18;;;;;;;14.98;10.02;;;;;;;;;;5084617;28;20059;-69
2022/03/13 11:07:44;;;;;;;17.70;11.95;;;;;;;;;;5082552;28;20084;-70
2022/03/13 11:10:11;;;;;;;22.63;14.25;;;;;;;;;;5083213;28;20499;-69
2022/03/13 11:12:39;;;;;;;17.40;11.13;;;;;;;;;;5081626;28;20036;-69
2022/03/13 11:15:06;;;;;;;33.47;18.95;;;;;;;;;;5083292;28;20031;-69
2022/03/13 11:17:33;;;;;;;18.13;13.68;;;;;;;;;;5081006;28;20339;-70
2022/03/13 11:19:59;;;;;;;17.17;10.52;;;;;;;;;;5082079;28;20031;-70
2022/03/13 11:22:25;;;;;;;12.88;8.98;;;;;;;;;;5082629;28;20513;-70
2022/03/13 11:24:52;;;;;;;12.55;8.40;;;;;;;;;;5080929;28;20451;-69
2022/03/13 11:27:18;;;;;;;13.75;10.50;;;;;;;;;;5081584;28;20036;-70
2022/03/13 11:29:46;;;;;;;37.88;23.73;;;;;;;;;;5063737;28;20038;-70
2022/03/13 11:32:27;;;;;;;19.40;12.52;;;;;;;;;;5083780;28;20028;-69
2022/03/13 11:37:39;;;;;;;23.17;13.85;;;;;;;;;;5076156;28;20044;-69
2022/03/13 11:40:05;;;;;;;17.35;10.90;;;;;;;;;;5084657;28;20361;-70
2022/03/13 11:43:00;;;;;;;17.20;10.95;;;;;;;;;;5086322;28;20063;-70
2022/03/13 11:45:32;;;;;;;24.67;16.67;;;;;;;;;;5064405;28;20109;-69
2022/03/13 11:48:09;;;;;;;22.33;14.82;;;;;;;;;;5087870;28;20042;-69
2022/03/13 11:50:54;;;;;;;16.90;9.75;;;;;;;;;;5086013;28;20016;-71
2022/03/13 11:53:23;;;;;;;15.23;11.65;;;;;;;;;;5085887;28;20020;-70
2022/03/13 11:56:06;;;;;;;11.18;7.88;;;;;;;;;;5085828;28;20085;-69
2022/03/13 11:58:52;;;;;;;11.20;8.48;;;;;;;;;;5085507;28;20032;-70
2022/03/13 12:01:21;;;;;;;13.07;9.27;;;;;;;;;;5085367;28;20047;-71
2022/03/13 12:04:05;;;;;;;16.55;10.82;;;;;;;;;;5085180;28;20028;-71
2022/03/13 12:06:39;;;;;;;12.98;8.55;;;;;;;;;;5085259;28;20028;-71
2022/03/13 12:09:09;;;;;;;11.65;8.13;;;;;;;;;;5084937;28;20362;-71
2022/03/13 12:11:38;;;;;;;19.40;12.50;;;;;;;;;;5084899;28;20045;-71
2022/03/13 12:14:04;;;;;;;10.95;8.05;;;;;;;;;;5085876;28;20474;-71
2022/03/13 12:16:30;;;;;;;15.13;10.50;;;;;;;;;;5083780;28;20043;-71
2022/03/13 12:18:59;;;;;;;19.75;12.93;;;;;;;;;;5084665;28;20028;-71
2022/03/13 12:21:24;;;;;;;19.20;13.45;;;;;;;;;;5084550;28;20447;-70
2022/03/13 12:23:49;;;;;;;17.23;11.73;;;;;;;;;;5083042;28;20035;-69
2022/03/13 12:26:19;;;;;;;26.38;17.02;;;;;;;;;;5085216;28;20496;-69
2022/03/13 12:28:44;;;;;;;20.38;14.00;;;;;;;;;;5087019;28;20063;-70
2022/03/13 12:31:10;;;;;;;22.02;13.60;;;;;;;;;;5084895;28;20592;-70
2022/03/13 12:33:36;;;;;;;16.60;11.10;;;;;;;;;;5085445;28;20031;-70
2022/03/13 12:36:02;;;;;;;14.00;9.73;;;;;;;;;;5085916;28;20020;-71
2022/03/13 12:38:28;;;;;;;14.63;9.80;;;;;;;;;;5085147;28;20454;-70
2022/03/13 12:40:54;;;;;;;26.17;15.27;;;;;;;;;;5084233;28;20046;-70
2022/03/13 12:43:20;;;;;;;15.93;9.95;;;;;;;;;;5084481;28;20024;-70
2022/03/13 12:45:52;;;;;;;14.30;9.70;;;;;;;;;;5085346;28;20027;-70
2022/03/13 12:48:17;;;;;;;25.52;12.95;;;;;;;;;;5084405;28;20039;-70
2022/03/13 12:50:47;;;;;;;21.95;12.15;;;;;;;;;;5084701;28;20020;-70
2022/03/13 12:53:13;;;;;;;;;;;;;;;;;;5084937;28;20535;-70
2022/03/13 12:55:48;;;;;;;18.98;12.57;;;;;;;;;;5084178;28;20026;-70
2022/03/13 12:58:14;;;;;;;20.70;13.50;;;;;;;;;;5083515;28;20522;-70
2022/03/13 13:00:40;;;;;;;23.15;14.50;;;;;;;;;;5084426;28;20024;-70
2022/03/13 13:03:06;;;;;;;61.08;28.70;;;;;;;;;;5084255;28;20431;-71
2022/03/13 13:05:32;;;;;;;38.30;22.50;;;;;;;;;;5083862;28;20099;-71
2022/03/13 13:07:58;;;;;;;32.42;17.48;;;;;;;;;;5083485;28;20024;-70
2022/03/13 13:10:23;;;;;;;35.15;20.73;;;;;;;;;;5086313;28;20031;-70
2022/03/13 13:12:49;;;;;;;25.95;14.70;;;;;;;;;;5083099;28;20071;-71
2022/03/13 13:15:16;;;;;;;58.90;28.88;;;;;;;;;;5084721;28;20346;-72
2022/03/13 13:17:42;;;;;;;41.25;19.70;;;;;;;;;;5085888;28;20847;-70
2022/03/13 13:20:19;;;;;;;142.73;65.63;;;;;;;;;;5084483;28;20070;-70
2022/03/13 13:22:45;;;;;;;63.20;32.10;;;;;;;;;;5082809;28;20067;-71
2022/03/13 13:25:12;;;;;;;64.38;36.08;;;;;;;;;;5085698;28;20121;-70
2022/03/13 13:27:41;;;;;;;22.77;15.43;;;;;;;;;;5085765;28;20183;-70
2022/03/13 13:30:26;;;;;;;25.00;17.00;;;;;;;;;;5084869;28;20467;-70
2022/03/13 13:32:52;;;;;;;140.88;76.20;;;;;;;;;;5082006;28;20425;-70
2022/03/13 13:35:22;;;;;;;29.88;15.50;;;;;;;;;;5085185;28;20020;-69
2022/03/13 13:37:58;;;;;;;35.25;21.35;;;;;;;;;;5083929;28;20777;-70
2022/03/13 13:40:25;;;;;;;51.17;28.80;;;;;;;;;;5084277;28;20036;-71
2022/03/13 13:42:54;;;;;;;38.90;24.50;;;;;;;;;;5082810;28;20081;-70
2022/03/13 13:45:29;;;;;;;39.42;25.40;;;;;;;;;;5083539;28;20081;-70
2022/03/13 13:48:14;;;;;;;58.75;33.35;;;;;;;;;;5083041;28;20042;-70
2022/03/13 13:50:40;;;;;;;64.88;37.05;;;;;;;;;;5084647;28;20134;-71
2022/03/13 13:53:08;;;;;;;44.38;23.38;;;;;;;;;;5083336;28;20028;-71
2022/03/13 13:55:35;;;;;;;23.00;12.50;;;;;;;;;;5084733;28;20039;-71
2022/03/13 13:58:17;;;;;;;22.92;14.50;;;;;;;;;;5083038;28;20126;-71
2022/03/13 14:00:47;;;;;;;24.15;14.32;;;;;;;;;;5083548;28;20034;-70
2022/03/13 14:03:13;;;;;;;19.73;13.25;;;;;;;;;;5083939;28;20350;-71
2022/03/13 14:05:39;;;;;;;41.90;22.33;;;;;;;;;;5082972;28;20039;-70
2022/03/13 14:08:04;;;;;;;25.45;15.15;;;;;;;;;;5084842;28;20028;-70
2022/03/13 14:10:30;;;;;;;10.57;6.72;;;;;;;;;;5083352;28;20156;-71
2022/03/13 14:12:55;;;;;;;8.68;6.75;;;;;;;;;;5077779;28;20351;-70